Augusta, Texas
Current Conditions -  °F | °C
As of 4:55 PM on Thursday 20 Nov 2014 (Local Time) from KDKR Reporting Station
Broken Clouds Broken Clouds  
Wind Chill: 70°   Ceiling: 5000
Heat Index: 70°   Visibility: 10mi
Dew Point: 59°   Wind: 8mph
Humidity: 68%   Direction: 140°SE
Pressure: 30.09"   Gusts: NA
Location:  31.4982°N, 95.4177°W
Report Text: KDKR 202255Z AUTO 14007KT 10SM SCT042 BKN050 21/15 A3009 RMK AO2
Loading
Personal Weather Stations






























Interactive Weather Map New forecast layout! Learn more

10-Day Weather Forecast

Advertisements
Track Severe Weather on mobile